createdAt,value
2018-11-25T00:00:34.483Z,1002.15
2018-11-25T00:01:34.462Z,1002.15
2018-11-25T00:02:34.442Z,1002.22
2018-11-25T00:03:34.422Z,1002.2
2018-11-25T00:04:34.403Z,1002.22
2018-11-25T00:05:34.380Z,1002.21
2018-11-25T00:06:34.361Z,1002.2
2018-11-25T00:07:34.733Z,1002.22
2018-11-25T00:08:34.317Z,1002.21
2018-11-25T00:09:34.318Z,1002.15
2018-11-25T00:10:34.280Z,1002.19
2018-11-25T00:11:34.262Z,1002.19
2018-11-25T00:12:34.238Z,1002.19
2018-11-25T00:13:34.219Z,1002.2
2018-11-25T00:14:34.198Z,1002.2
2018-11-25T00:15:34.181Z,1002.18
2018-11-25T00:16:34.156Z,1002.22
2018-11-25T00:17:34.137Z,1002.21
2018-11-25T00:18:34.119Z,1002.18
2018-11-25T00:19:34.103Z,1002.2
2018-11-25T00:20:34.076Z,1002.17
2018-11-25T00:21:34.095Z,1002.14
2018-11-25T00:22:34.035Z,1002.11
2018-11-25T00:23:34.019Z,1002.12
2018-11-25T00:24:33.996Z,1002.17
2018-11-25T00:25:33.974Z,1002.16
2018-11-25T00:26:33.954Z,1002.13
2018-11-25T00:27:33.932Z,1002.18
2018-11-25T00:28:33.919Z,1002.15
2018-11-25T00:29:33.893Z,1002.18
2018-11-25T00:30:33.870Z,1002.15
2018-11-25T00:31:33.856Z,1002.19
2018-11-25T00:32:33.832Z,1002.15
2018-11-25T00:33:33.815Z,1002.15
2018-11-25T00:34:33.791Z,1002.1
2018-11-25T00:35:33.769Z,1002.11
2018-11-25T00:36:33.751Z,1002.13
2018-11-25T00:37:33.730Z,1002.11
2018-11-25T00:38:33.714Z,1002.14
2018-11-25T00:39:33.692Z,1002.13
2018-11-25T00:40:33.669Z,1002.15
2018-11-25T00:41:33.649Z,1002.14
2018-11-25T00:42:33.628Z,1002.13
2018-11-25T00:43:33.621Z,1002.12
2018-11-25T00:44:33.588Z,1002.12
2018-11-25T00:45:33.608Z,1002.07
2018-11-25T00:46:33.549Z,1002.1
2018-11-25T00:47:33.530Z,1002.11
2018-11-25T00:48:33.505Z,1002.07
2018-11-25T00:49:33.492Z,1002.03
2018-11-25T00:50:33.467Z,1002.03
2018-11-25T00:51:33.449Z,1002.05
2018-11-25T00:52:33.428Z,1002.06
2018-11-25T00:53:33.403Z,1002.06
2018-11-25T00:54:33.385Z,1002.07
2018-11-25T00:55:33.366Z,1002.09
2018-11-25T00:56:33.342Z,1002.11
2018-11-25T00:57:33.329Z,1002.09
2018-11-25T00:58:33.305Z,1002.09
2018-11-25T00:59:33.290Z,1002.11
2018-11-25T01:00:33.262Z,1002.09
2018-11-25T01:01:33.244Z,1002.09
2018-11-25T01:02:33.221Z,1002.08
2018-11-25T01:03:33.205Z,1002.09
2018-11-25T01:04:33.181Z,1002.11
2018-11-25T01:05:33.162Z,1002.11
2018-11-25T01:06:33.141Z,1002.16
2018-11-25T01:07:33.126Z,1002.14
2018-11-25T01:08:33.103Z,1002.19
2018-11-25T01:09:33.079Z,1002.16
2018-11-25T01:10:33.057Z,1002.22
2018-11-25T01:11:33.242Z,1002.23
2018-11-25T01:12:33.017Z,1002.22
2018-11-25T01:13:33.000Z,1002.22
2018-11-25T01:14:32.976Z,1002.21
2018-11-25T01:15:32.956Z,1002.22
2018-11-25T01:16:32.935Z,1002.2
2018-11-25T01:17:32.925Z,1002.18
2018-11-25T01:18:32.897Z,1002.18
2018-11-25T01:19:32.875Z,1002.2
2018-11-25T01:20:32.854Z,1002.2
2018-11-25T01:21:32.831Z,1002.24
2018-11-25T01:22:32.816Z,1002.23
2018-11-25T01:23:32.796Z,1002.28
2018-11-25T01:24:32.770Z,1002.3
2018-11-25T01:25:32.751Z,1002.33
2018-11-25T01:26:32.732Z,1002.33
2018-11-25T01:27:32.710Z,1002.3
2018-11-25T01:28:32.736Z,1002.33
2018-11-25T01:29:32.673Z,1002.32
2018-11-25T01:30:32.655Z,1002.33
2018-11-25T01:31:32.628Z,1002.34
2018-11-25T01:32:32.608Z,1002.32
2018-11-25T01:33:32.589Z,1002.32
2018-11-25T01:34:32.566Z,1002.33
2018-11-25T01:35:32.550Z,1002.36
2018-11-25T01:36:32.525Z,1002.31
2018-11-25T01:37:32.505Z,1002.32
2018-11-25T01:38:32.483Z,1002.29
2018-11-25T01:39:32.464Z,1002.25
2018-11-25T01:40:32.447Z,1002.24
2018-11-25T01:41:32.423Z,1002.27
2018-11-25T01:42:32.405Z,1002.23
2018-11-25T01:43:32.380Z,1002.21
2018-11-25T01:44:32.361Z,1002.18
2018-11-25T01:45:32.342Z,1002.24
2018-11-25T01:46:32.320Z,1002.21
2018-11-25T01:47:32.297Z,1002.18
2018-11-25T01:48:32.279Z,1002.19
2018-11-25T01:49:32.258Z,1002.18
2018-11-25T01:50:32.237Z,1002.21
2018-11-25T01:51:32.218Z,1002.18
2018-11-25T01:52:32.198Z,1002.21
2018-11-25T01:53:32.178Z,1002.2
2018-11-25T01:54:32.154Z,1002.21
2018-11-25T01:55:32.133Z,1002.18
2018-11-25T01:56:32.115Z,1002.2
2018-11-25T01:57:32.094Z,1002.17
2018-11-25T01:58:32.072Z,1002.21
2018-11-25T01:59:32.052Z,1002.17
2018-11-25T02:00:32.032Z,1002.15
2018-11-25T02:01:32.014Z,1002.16
2018-11-25T02:02:31.990Z,1002.17
2018-11-25T02:03:31.972Z,1002.14
2018-11-25T02:04:31.949Z,1002.2
2018-11-25T02:05:31.929Z,1002.17
2018-11-25T02:06:31.912Z,1002.17
2018-11-25T02:07:31.891Z,1002.19
2018-11-25T02:08:31.866Z,1002.15
2018-11-25T02:09:31.848Z,1002.15
2018-11-25T02:10:31.825Z,1002.15
2018-11-25T02:11:31.806Z,1002.15
2018-11-25T02:12:31.785Z,1002.17
2018-11-25T02:13:31.763Z,1002.18
2018-11-25T02:14:31.743Z,1002.14
2018-11-25T02:15:31.724Z,1002.16
2018-11-25T02:16:31.703Z,1002.14
2018-11-25T02:17:31.683Z,1002.14
2018-11-25T02:18:31.665Z,1002.16
2018-11-25T02:19:31.641Z,1002.16
2018-11-25T02:20:31.628Z,1002.18
2018-11-25T02:21:31.602Z,1002.14
2018-11-25T02:22:31.580Z,1002.14
2018-11-25T02:23:31.560Z,1002.1
2018-11-25T02:24:31.539Z,1002.14
2018-11-25T02:25:31.521Z,1002.1
2018-11-25T02:26:31.498Z,1002.14
2018-11-25T02:27:31.478Z,1002.12
2018-11-25T02:28:31.458Z,1002.11
2018-11-25T02:29:31.436Z,1002.1
2018-11-25T02:30:31.417Z,1002.12
2018-11-25T02:31:31.395Z,1002.09
2018-11-25T02:32:31.384Z,1002.12
2018-11-25T02:33:31.352Z,1002.08
2018-11-25T02:34:31.335Z,1002.1
2018-11-25T02:35:31.313Z,1002.1
2018-11-25T02:36:31.293Z,1002.12
2018-11-25T02:37:31.270Z,1002.1
2018-11-25T02:38:31.266Z,1002.12
2018-11-25T02:39:31.231Z,1002.05
2018-11-25T02:40:31.210Z,1002.1
2018-11-25T02:41:31.188Z,1002.07
2018-11-25T02:42:31.173Z,1002.08
2018-11-25T02:43:31.149Z,1002.08
2018-11-25T02:44:31.130Z,1002.08
2018-11-25T02:45:31.106Z,1002.07
2018-11-25T02:46:31.101Z,1002.06
2018-11-25T02:47:31.066Z,1002.07
2018-11-25T02:48:31.045Z,1002.05
2018-11-25T02:49:31.025Z,1002.02
2018-11-25T02:50:31.002Z,1002.05
2018-11-25T02:51:30.984Z,1002.05
2018-11-25T02:52:30.962Z,1002.07
2018-11-25T02:53:30.951Z,1002.03
2018-11-25T02:54:30.922Z,1002.02
2018-11-25T02:55:30.907Z,1002.01
2018-11-25T02:56:30.886Z,1002.05
2018-11-25T02:57:30.864Z,1002.05
2018-11-25T02:58:30.840Z,1002.05
2018-11-25T02:59:30.818Z,1002.11
2018-11-25T03:00:30.798Z,1002.11
2018-11-25T03:01:30.778Z,1002.12
2018-11-25T03:02:30.758Z,1002.16
2018-11-25T03:03:30.739Z,1002.14
2018-11-25T03:04:30.717Z,1002.16
2018-11-25T03:05:30.701Z,1002.15
2018-11-25T03:06:30.682Z,1002.16
2018-11-25T03:07:30.653Z,1002.17
2018-11-25T03:08:30.636Z,1002.17
2018-11-25T03:09:30.614Z,1002.17
2018-11-25T03:10:30.593Z,1002.15
2018-11-25T03:11:30.776Z,1002.17
2018-11-25T03:12:30.556Z,1002.17
2018-11-25T03:13:30.532Z,1002.19
2018-11-25T03:14:30.513Z,1002.19
2018-11-25T03:15:30.498Z,1002.22
2018-11-25T03:16:30.476Z,1002.2
2018-11-25T03:17:30.450Z,1002.2
2018-11-25T03:18:30.433Z,1002.23
2018-11-25T03:19:30.410Z,1002.25
2018-11-25T03:20:30.388Z,1002.21
2018-11-25T03:21:30.368Z,1002.21
2018-11-25T03:22:30.348Z,1002.2
2018-11-25T03:23:30.331Z,1002.24
2018-11-25T03:24:30.308Z,1002.23
2018-11-25T03:25:30.286Z,1002.26
2018-11-25T03:26:30.266Z,1002.22
2018-11-25T03:27:30.295Z,1002.27
2018-11-25T03:28:30.227Z,1002.23
2018-11-25T03:29:30.206Z,1002.22
2018-11-25T03:30:30.188Z,1002.26
2018-11-25T03:31:30.162Z,1002.24
2018-11-25T03:32:30.142Z,1002.28
2018-11-25T03:33:30.122Z,1002.22
2018-11-25T03:34:30.103Z,1002.24
2018-11-25T03:35:30.094Z,1002.25
2018-11-25T03:36:30.061Z,1002.23
2018-11-25T03:37:30.039Z,1002.24
2018-11-25T03:38:30.021Z,1002.21
2018-11-25T03:39:30.003Z,1002.23
2018-11-25T03:40:29.977Z,1002.22
2018-11-25T03:41:29.960Z,1002.21
2018-11-25T03:42:29.946Z,1002.23
2018-11-25T03:43:29.915Z,1002.22
2018-11-25T03:44:29.903Z,1002.25
2018-11-25T03:45:29.874Z,1002.24
2018-11-25T03:46:29.853Z,1002.24
2018-11-25T03:47:29.833Z,1002.23
2018-11-25T03:48:29.818Z,1002.25
2018-11-25T03:49:29.795Z,1002.25
2018-11-25T03:50:29.771Z,1002.28
2018-11-25T03:51:29.755Z,1002.23
2018-11-25T03:52:29.737Z,1002.22
2018-11-25T03:53:29.712Z,1002.24
2018-11-25T03:54:29.692Z,1002.23
2018-11-25T03:55:29.672Z,1002.21
2018-11-25T03:56:29.647Z,1002.22
2018-11-25T03:57:29.629Z,1002.23
2018-11-25T03:58:29.605Z,1002.19
2018-11-25T03:59:29.586Z,1002.16
2018-11-25T04:00:29.570Z,1002.18
2018-11-25T04:01:29.545Z,1002.17
2018-11-25T04:02:29.524Z,1002.17
2018-11-25T04:03:29.504Z,1002.19
2018-11-25T04:04:29.483Z,1002.17
2018-11-25T04:05:29.464Z,1002.19
2018-11-25T04:06:29.446Z,1002.16
2018-11-25T04:07:29.425Z,1002.14
2018-11-25T04:08:29.406Z,1002.13
2018-11-25T04:09:29.381Z,1002.18
2018-11-25T04:10:29.360Z,1002.13
2018-11-25T04:11:29.340Z,1002.14
2018-11-25T04:12:29.321Z,1002.13
2018-11-25T04:13:29.298Z,1002.12
2018-11-25T04:14:29.282Z,1002.12
2018-11-25T04:15:29.260Z,1002.09
2018-11-25T04:16:29.243Z,1002.12
2018-11-25T04:17:29.220Z,1002.11
2018-11-25T04:18:29.218Z,1002.13
2018-11-25T04:19:29.176Z,1002.13
2018-11-25T04:20:29.155Z,1002.15
2018-11-25T04:21:29.137Z,1002.16
2018-11-25T04:22:29.116Z,1002.17
2018-11-25T04:23:29.091Z,1002.18
2018-11-25T04:24:29.072Z,1002.21
2018-11-25T04:25:29.056Z,1002.19
2018-11-25T04:26:29.046Z,1002.24
2018-11-25T04:27:29.773Z,1002.23
2018-11-25T04:28:28.993Z,1002.22
2018-11-25T04:29:28.972Z,1002.22
2018-11-25T04:30:28.948Z,1002.22
2018-11-25T04:31:28.927Z,1002.21
2018-11-25T04:32:28.910Z,1002.23
2018-11-25T04:33:28.887Z,1002.21
2018-11-25T04:34:28.869Z,1002.2
2018-11-25T04:35:28.845Z,1002.22
2018-11-25T04:36:28.824Z,1002.24
2018-11-25T04:37:28.805Z,1002.22
2018-11-25T04:38:28.784Z,1002.2
2018-11-25T04:39:28.765Z,1002.23
2018-11-25T04:40:28.748Z,1002.25
2018-11-25T04:41:28.726Z,1002.24
2018-11-25T04:42:28.702Z,1002.25
2018-11-25T04:43:28.695Z,1002.24
2018-11-25T04:44:28.662Z,1002.27
2018-11-25T04:45:28.652Z,1002.23
2018-11-25T04:46:28.620Z,1002.24
2018-11-25T04:47:28.604Z,1002.3
2018-11-25T04:48:28.584Z,1002.3
2018-11-25T04:49:28.562Z,1002.29
2018-11-25T04:50:28.539Z,1002.36
2018-11-25T04:51:28.519Z,1002.36
2018-11-25T04:52:28.521Z,1002.36
2018-11-25T04:53:28.477Z,1002.4
2018-11-25T04:54:28.511Z,1002.38
2018-11-25T04:55:28.437Z,1002.39
2018-11-25T04:56:28.415Z,1002.42
2018-11-25T04:57:28.398Z,1002.45
2018-11-25T04:58:28.373Z,1002.44
2018-11-25T04:59:28.355Z,1002.43
2018-11-25T05:00:28.335Z,1002.44
2018-11-25T05:01:28.313Z,1002.43
2018-11-25T05:02:28.303Z,1002.46
2018-11-25T05:03:28.272Z,1002.47
2018-11-25T05:04:28.250Z,1002.45
2018-11-25T05:05:28.234Z,1002.5
2018-11-25T05:06:28.209Z,1002.45
2018-11-25T05:07:28.189Z,1002.49
2018-11-25T05:08:28.174Z,1002.48
2018-11-25T05:09:28.151Z,1002.46
2018-11-25T05:10:28.130Z,1002.46
2018-11-25T05:11:28.108Z,1002.43
2018-11-25T05:12:28.086Z,1002.45
2018-11-25T05:13:28.066Z,1002.45
2018-11-25T05:14:28.046Z,1002.43
2018-11-25T05:15:28.023Z,1002.41
2018-11-25T05:16:28.005Z,1002.41
2018-11-25T05:17:27.984Z,1002.41
2018-11-25T05:18:27.963Z,1002.42
2018-11-25T05:19:27.941Z,1002.42
2018-11-25T05:20:27.926Z,1002.41
2018-11-25T05:21:27.904Z,1002.41
2018-11-25T05:22:27.881Z,1002.41
2018-11-25T05:23:27.864Z,1002.39
2018-11-25T05:24:27.842Z,1002.41
2018-11-25T05:25:27.818Z,1002.43
2018-11-25T05:26:27.803Z,1002.42
2018-11-25T05:27:27.782Z,1002.43
2018-11-25T05:28:27.760Z,1002.45
2018-11-25T05:29:27.737Z,1002.42
2018-11-25T05:30:27.727Z,1002.38
2018-11-25T05:31:27.698Z,1002.43
2018-11-25T05:32:27.677Z,1002.42
2018-11-25T05:33:27.660Z,1002.43
2018-11-25T05:34:27.637Z,1002.44
2018-11-25T05:35:27.617Z,1002.43
2018-11-25T05:36:27.595Z,1002.41
2018-11-25T05:37:27.575Z,1002.48
2018-11-25T05:38:27.555Z,1002.45
2018-11-25T05:39:27.538Z,1002.47
2018-11-25T05:40:27.514Z,1002.5
2018-11-25T05:41:27.494Z,1002.51
2018-11-25T05:42:27.474Z,1002.51
2018-11-25T05:43:27.457Z,1002.5
2018-11-25T05:44:27.432Z,1002.5
2018-11-25T05:45:27.412Z,1002.48
2018-11-25T05:46:27.392Z,1002.46
2018-11-25T05:47:27.368Z,1002.44
2018-11-25T05:48:27.354Z,1002.42
2018-11-25T05:49:27.338Z,1002.43
2018-11-25T05:50:27.318Z,1002.44
2018-11-25T05:51:27.291Z,1002.45
2018-11-25T05:52:27.267Z,1002.51
2018-11-25T05:53:27.252Z,1002.48
2018-11-25T05:54:27.229Z,1002.48
2018-11-25T05:55:27.205Z,1002.49
2018-11-25T05:56:27.182Z,1002.48
2018-11-25T05:57:27.169Z,1002.49
2018-11-25T05:58:27.143Z,1002.48
2018-11-25T05:59:27.133Z,1002.42
2018-11-25T06:00:27.103Z,1002.39
2018-11-25T06:01:27.082Z,1002.41
2018-11-25T06:02:27.064Z,1002.37
2018-11-25T06:03:27.040Z,1002.33
2018-11-25T06:04:27.020Z,1002.31
2018-11-25T06:05:27.001Z,1002.3
2018-11-25T06:06:26.979Z,1002.32
2018-11-25T06:07:26.960Z,1002.33
2018-11-25T06:08:26.939Z,1002.3
2018-11-25T06:09:26.919Z,1002.31
2018-11-25T06:10:26.901Z,1002.29
2018-11-25T06:11:26.878Z,1002.33
2018-11-25T06:12:26.857Z,1002.35
2018-11-25T06:13:26.838Z,1002.34
2018-11-25T06:14:26.815Z,1002.37
2018-11-25T06:15:26.795Z,1002.36
2018-11-25T06:16:26.775Z,1002.38
2018-11-25T06:17:26.763Z,1002.35
2018-11-25T06:18:26.736Z,1002.4
2018-11-25T06:19:26.715Z,1002.35
2018-11-25T06:20:26.691Z,1002.38
2018-11-25T06:21:26.675Z,1002.39
2018-11-25T06:22:26.653Z,1002.39
2018-11-25T06:23:26.631Z,1002.41
2018-11-25T06:24:26.614Z,1002.39
2018-11-25T06:25:26.595Z,1002.37
2018-11-25T06:26:26.585Z,1002.42
2018-11-25T06:27:26.551Z,1002.43
2018-11-25T06:28:26.528Z,1002.42
2018-11-25T06:29:26.509Z,1002.41
2018-11-25T06:30:26.488Z,1002.39
2018-11-25T06:31:26.466Z,1002.39
2018-11-25T06:32:26.449Z,1002.4
2018-11-25T06:33:26.426Z,1002.42
2018-11-25T06:34:26.408Z,1002.41
2018-11-25T06:35:26.386Z,1002.37
2018-11-25T06:36:26.366Z,1002.37
2018-11-25T06:37:26.343Z,1002.36
2018-11-25T06:38:26.325Z,1002.39
2018-11-25T06:39:26.301Z,1002.42
2018-11-25T06:40:26.304Z,1002.42
2018-11-25T06:41:27.133Z,1002.39
2018-11-25T06:42:26.245Z,1002.45
2018-11-25T06:43:26.223Z,1002.48
2018-11-25T06:44:26.201Z,1002.48
2018-11-25T06:45:26.182Z,1002.48
2018-11-25T06:46:26.160Z,1002.48
2018-11-25T06:47:26.140Z,1002.49
2018-11-25T06:48:26.120Z,1002.47
2018-11-25T06:49:26.099Z,1002.5
2018-11-25T06:50:26.077Z,1002.48
2018-11-25T06:51:26.058Z,1002.44
2018-11-25T06:52:26.036Z,1002.45
2018-11-25T06:53:26.019Z,1002.45
2018-11-25T06:54:25.996Z,1002.44
2018-11-25T06:55:25.976Z,1002.44
2018-11-25T06:56:27.423Z,1002.45
2018-11-25T06:57:25.933Z,1002.44
2018-11-25T06:58:25.913Z,1002.44
2018-11-25T06:59:25.893Z,1002.42
2018-11-25T07:00:25.880Z,1002.47
2018-11-25T07:01:25.857Z,1002.5
2018-11-25T07:02:25.832Z,1002.5
2018-11-25T07:03:25.813Z,1002.51
2018-11-25T07:04:25.791Z,1002.56
2018-11-25T07:05:25.771Z,1002.61
2018-11-25T07:06:25.811Z,1002.65
2018-11-25T07:07:25.730Z,1002.61
2018-11-25T07:08:25.707Z,1002.62
2018-11-25T07:09:25.687Z,1002.63
2018-11-25T07:10:25.670Z,1002.63
2018-11-25T07:11:25.647Z,1002.65
2018-11-25T07:12:25.828Z,1002.64
2018-11-25T07:13:25.607Z,1002.66
2018-11-25T07:14:25.588Z,1002.66
2018-11-25T07:15:25.566Z,1002.67
2018-11-25T07:16:25.544Z,1002.69
2018-11-25T07:17:25.525Z,1002.72
2018-11-25T07:18:25.503Z,1002.71
2018-11-25T07:19:25.481Z,1002.74
2018-11-25T07:20:25.464Z,1002.78
2018-11-25T07:21:25.445Z,1002.74
2018-11-25T07:22:25.419Z,1002.74
2018-11-25T07:23:25.401Z,1002.72
2018-11-25T07:24:25.378Z,1002.73
2018-11-25T07:25:25.360Z,1002.73
2018-11-25T07:26:25.338Z,1002.69
2018-11-25T07:27:25.315Z,1002.67
2018-11-25T07:28:25.295Z,1002.69
2018-11-25T07:29:25.275Z,1002.67
2018-11-25T07:30:25.255Z,1002.64
2018-11-25T07:31:25.232Z,1002.67
2018-11-25T07:32:25.211Z,1002.66
2018-11-25T07:33:25.190Z,1002.7
2018-11-25T07:34:25.170Z,1002.72
2018-11-25T07:35:25.151Z,1002.72
2018-11-25T07:36:25.130Z,1002.71
2018-11-25T07:37:25.109Z,1002.75
2018-11-25T07:38:25.087Z,1002.72
2018-11-25T07:39:25.066Z,1002.72
2018-11-25T07:40:25.047Z,1002.77
2018-11-25T07:41:25.024Z,1002.72
2018-11-25T07:42:25.005Z,1002.76
2018-11-25T07:43:24.985Z,1002.78
2018-11-25T07:44:24.980Z,1002.79
2018-11-25T07:45:29.965Z,1002.77
2018-11-25T07:46:24.920Z,1002.76
2018-11-25T07:47:24.902Z,1002.77
2018-11-25T07:48:24.887Z,1002.77
2018-11-25T07:49:24.859Z,1002.76
2018-11-25T07:50:24.839Z,1002.83
2018-11-25T07:51:24.818Z,1002.8
2018-11-25T07:52:24.799Z,1002.79
2018-11-25T07:53:24.776Z,1002.8
2018-11-25T07:54:24.756Z,1002.85
2018-11-25T07:55:24.735Z,1002.82
2018-11-25T07:56:24.713Z,1002.82
2018-11-25T07:57:24.694Z,1002.8
2018-11-25T07:58:24.672Z,1002.82
2018-11-25T07:59:24.652Z,1002.78
2018-11-25T08:00:24.637Z,1002.81
2018-11-25T08:01:24.620Z,1002.81
2018-11-25T08:02:24.593Z,1002.78
2018-11-25T08:03:24.567Z,1002.75
2018-11-25T08:04:24.552Z,1002.72
2018-11-25T08:05:24.535Z,1002.69
2018-11-25T08:06:24.507Z,1002.69
2018-11-25T08:07:24.485Z,1002.67
2018-11-25T08:08:24.463Z,1002.69
2018-11-25T08:09:24.443Z,1002.66
2018-11-25T08:10:24.423Z,1002.66
2018-11-25T08:11:24.404Z,1002.67
2018-11-25T08:12:24.380Z,1002.63
2018-11-25T08:13:24.360Z,1002.65
2018-11-25T08:14:24.346Z,1002.59
2018-11-25T08:15:24.319Z,1002.64
2018-11-25T08:16:24.298Z,1002.59
2018-11-25T08:17:24.286Z,1002.6
2018-11-25T08:18:24.259Z,1002.58
2018-11-25T08:19:24.241Z,1002.6
2018-11-25T08:20:24.218Z,1002.58
2018-11-25T08:21:24.196Z,1002.61
2018-11-25T08:22:24.174Z,1002.65
2018-11-25T08:23:24.153Z,1002.67
2018-11-25T08:24:24.133Z,1002.71
2018-11-25T08:25:24.110Z,1002.65
2018-11-25T08:26:24.091Z,1002.6
2018-11-25T08:27:24.101Z,1002.59
2018-11-25T08:28:24.082Z,1002.56
2018-11-25T08:29:24.028Z,1002.54
2018-11-25T08:30:24.007Z,1002.57
2018-11-25T08:31:23.987Z,1002.53
2018-11-25T08:32:23.971Z,1002.51
2018-11-25T08:33:23.970Z,1002.53
2018-11-25T08:34:23.938Z,1002.53
2018-11-25T08:35:23.924Z,1002.55
2018-11-25T08:36:23.883Z,1002.55
2018-11-25T08:37:23.863Z,1002.55
2018-11-25T08:38:23.856Z,1002.5
2018-11-25T08:39:23.822Z,1002.5
2018-11-25T08:40:23.812Z,1002.53
2018-11-25T08:41:23.787Z,1002.51
2018-11-25T08:42:23.775Z,1002.57
2018-11-25T08:43:23.748Z,1002.58
2018-11-25T08:44:23.734Z,1002.58
2018-11-25T08:45:23.712Z,1002.58
2018-11-25T08:46:23.697Z,1002.57
2018-11-25T08:47:23.671Z,1002.61
2018-11-25T08:48:23.681Z,1002.61
2018-11-25T08:49:23.623Z,1002.63
2018-11-25T08:50:23.595Z,1002.63
2018-11-25T08:51:23.584Z,1002.61
2018-11-25T08:52:23.553Z,1002.62
2018-11-25T08:53:23.540Z,1002.64
2018-11-25T08:54:23.513Z,1002.64
2018-11-25T08:55:23.489Z,1002.64
2018-11-25T08:56:23.481Z,1002.63
2018-11-25T08:57:23.449Z,1002.67
2018-11-25T08:58:23.431Z,1002.69
2018-11-25T08:59:23.409Z,1002.66
2018-11-25T09:00:23.387Z,1002.7
2018-11-25T09:01:23.366Z,1002.75
2018-11-25T09:02:23.348Z,1002.72
2018-11-25T09:03:23.326Z,1002.72
2018-11-25T09:04:23.304Z,1002.75
2018-11-25T09:05:23.284Z,1002.73
2018-11-25T09:06:23.265Z,1002.74
2018-11-25T09:07:23.249Z,1002.72
2018-11-25T09:08:23.225Z,1002.72
2018-11-25T09:09:23.206Z,1002.71
2018-11-25T09:10:23.182Z,1002.71
2018-11-25T09:11:23.162Z,1002.71
2018-11-25T09:12:23.344Z,1002.71
2018-11-25T09:13:23.123Z,1002.72
2018-11-25T09:14:23.101Z,1002.77
2018-11-25T09:15:23.080Z,1002.76
2018-11-25T09:16:23.063Z,1002.74
2018-11-25T09:17:23.039Z,1002.73
2018-11-25T09:18:23.020Z,1002.74
2018-11-25T09:19:22.997Z,1002.72
2018-11-25T09:20:22.981Z,1002.75
2018-11-25T09:21:22.956Z,1002.72
2018-11-25T09:22:22.955Z,1002.7
2018-11-25T09:23:22.920Z,1002.71
2018-11-25T09:24:22.898Z,1002.7
2018-11-25T09:25:22.878Z,1002.68
2018-11-25T09:26:22.858Z,1002.68
2018-11-25T09:27:22.834Z,1002.67
2018-11-25T09:28:22.814Z,1002.63
2018-11-25T09:29:22.793Z,1002.65
2018-11-25T09:30:22.772Z,1002.65
2018-11-25T09:31:22.761Z,1002.63
2018-11-25T09:32:23.211Z,1002.62
2018-11-25T09:33:22.719Z,1002.63
2018-11-25T09:34:22.690Z,1002.59
2018-11-25T09:35:22.701Z,1002.6
2018-11-25T09:36:22.649Z,1002.57
2018-11-25T09:37:22.632Z,1002.57
2018-11-25T09:38:22.609Z,1002.53
2018-11-25T09:39:22.593Z,1002.55
2018-11-25T09:40:22.567Z,1002.57
2018-11-25T09:41:22.547Z,1002.56
2018-11-25T09:42:22.562Z,1002.62
2018-11-25T09:43:22.505Z,1002.61
2018-11-25T09:44:22.487Z,1002.64
2018-11-25T09:45:22.468Z,1002.64
2018-11-25T09:46:22.446Z,1002.64
2018-11-25T09:47:22.425Z,1002.63
2018-11-25T09:48:22.408Z,1002.62
2018-11-25T09:49:22.385Z,1002.65
2018-11-25T09:50:22.372Z,1002.63
2018-11-25T09:51:22.344Z,1002.6
2018-11-25T09:52:22.322Z,1002.64
2018-11-25T09:53:22.305Z,1002.65
2018-11-25T09:54:22.283Z,1002.6
2018-11-25T09:55:22.263Z,1002.62
2018-11-25T09:56:22.244Z,1002.62
2018-11-25T09:57:22.224Z,1002.59
2018-11-25T09:58:25.370Z,1002.59
2018-11-25T09:59:22.182Z,1002.66
2018-11-25T10:00:22.160Z,1002.62
2018-11-25T10:01:22.139Z,1002.67
2018-11-25T10:02:22.120Z,1002.69
2018-11-25T10:03:22.103Z,1002.69
2018-11-25T10:04:22.083Z,1002.68
2018-11-25T10:05:22.061Z,1002.68
2018-11-25T10:06:22.042Z,1002.71
2018-11-25T10:07:22.017Z,1002.7
2018-11-25T10:08:21.998Z,1002.67
2018-11-25T10:09:21.978Z,1002.72
2018-11-25T10:10:21.971Z,1002.74
2018-11-25T10:11:21.938Z,1002.68
2018-11-25T10:12:21.917Z,1002.65
2018-11-25T10:13:21.897Z,1002.66
2018-11-25T10:14:21.877Z,1002.61
2018-11-25T10:15:21.856Z,1002.69
2018-11-25T10:16:21.848Z,1002.65
2018-11-25T10:17:21.821Z,1002.69
2018-11-25T10:18:21.795Z,1002.68
2018-11-25T10:19:21.779Z,1002.7
2018-11-25T10:20:21.754Z,1002.68
2018-11-25T10:21:21.735Z,1002.74
2018-11-25T10:22:21.712Z,1002.72
2018-11-25T10:23:21.749Z,1002.73
2018-11-25T10:24:21.684Z,1002.69
2018-11-25T10:25:21.668Z,1002.74
2018-11-25T10:26:21.633Z,1002.71
2018-11-25T10:27:21.614Z,1002.71
2018-11-25T10:28:21.593Z,1002.67
2018-11-25T10:29:21.571Z,1002.71
2018-11-25T10:30:21.556Z,1002.71
2018-11-25T10:31:21.542Z,1002.65
2018-11-25T10:32:21.513Z,1002.66
2018-11-25T10:33:21.489Z,1002.65
2018-11-25T10:34:21.470Z,1002.68
2018-11-25T10:35:21.459Z,1002.64
2018-11-25T10:36:21.429Z,1002.65
2018-11-25T10:37:21.409Z,1002.6
2018-11-25T10:38:21.389Z,1002.63
2018-11-25T10:39:21.369Z,1002.62
2018-11-25T10:40:21.350Z,1002.6
2018-11-25T10:41:21.330Z,1002.59
2018-11-25T10:42:21.310Z,1002.62
2018-11-25T10:43:21.288Z,1002.61
2018-11-25T10:44:21.266Z,1002.58
2018-11-25T10:45:21.246Z,1002.59
2018-11-25T10:46:21.226Z,1002.56
2018-11-25T10:47:21.209Z,1002.55
2018-11-25T10:48:21.185Z,1002.55
2018-11-25T10:49:22.447Z,1002.59
2018-11-25T10:50:21.147Z,1002.52
2018-11-25T10:51:21.126Z,1002.51
2018-11-25T10:52:21.109Z,1002.51
2018-11-25T10:53:21.083Z,1002.49
2018-11-25T10:54:21.064Z,1002.44
2018-11-25T10:55:21.052Z,1002.45
2018-11-25T10:56:21.040Z,1002.41
2018-11-25T10:57:21.009Z,1002.4
2018-11-25T10:58:20.981Z,1002.4
2018-11-25T10:59:20.961Z,1002.41
2018-11-25T11:00:20.941Z,1002.39
2018-11-25T11:01:21.489Z,1002.41
2018-11-25T11:02:20.903Z,1002.4
2018-11-25T11:03:20.881Z,1002.42
2018-11-25T11:04:20.858Z,1002.42
2018-11-25T11:05:20.842Z,1002.39
2018-11-25T11:06:20.821Z,1002.37
2018-11-25T11:07:20.798Z,1002.4
2018-11-25T11:08:20.779Z,1002.35
2018-11-25T11:09:20.759Z,1002.34
2018-11-25T11:10:20.744Z,1002.37
2018-11-25T11:11:20.722Z,1002.34
2018-11-25T11:12:20.900Z,1002.35
2018-11-25T11:13:20.674Z,1002.29
2018-11-25T11:14:20.658Z,1002.35
2018-11-25T11:15:20.636Z,1002.34
2018-11-25T11:16:20.615Z,1002.32
2018-11-25T11:17:20.594Z,1002.34
2018-11-25T11:18:20.574Z,1002.3
2018-11-25T11:19:20.555Z,1002.31
2018-11-25T11:20:20.534Z,1002.36
2018-11-25T11:21:20.512Z,1002.32
2018-11-25T11:22:20.492Z,1002.36
2018-11-25T11:23:20.477Z,1002.33
2018-11-25T11:24:20.451Z,1002.33
2018-11-25T11:25:20.433Z,1002.32
2018-11-25T11:26:20.419Z,1002.34
2018-11-25T11:27:20.391Z,1002.34
2018-11-25T11:28:20.370Z,1002.34
2018-11-25T11:29:20.349Z,1002.37
2018-11-25T11:30:20.331Z,1002.38
2018-11-25T11:31:20.313Z,1002.36
2018-11-25T11:32:20.290Z,1002.38
2018-11-25T11:33:20.277Z,1002.41
2018-11-25T11:34:20.252Z,1002.41
2018-11-25T11:35:20.227Z,1002.4
2018-11-25T11:36:20.206Z,1002.38
2018-11-25T11:37:20.187Z,1002.43
2018-11-25T11:38:20.171Z,1002.43
2018-11-25T11:39:20.145Z,1002.44
2018-11-25T11:40:20.124Z,1002.45
2018-11-25T11:41:20.108Z,1002.43
2018-11-25T11:42:20.083Z,1002.46
2018-11-25T11:43:20.063Z,1002.47
2018-11-25T11:44:20.051Z,1002.48
2018-11-25T11:45:20.025Z,1002.51
2018-11-25T11:46:20.003Z,1002.47
2018-11-25T11:47:19.986Z,1002.48
2018-11-25T11:48:19.967Z,1002.46
2018-11-25T11:49:19.946Z,1002.44
2018-11-25T11:50:19.924Z,1002.45
2018-11-25T11:51:25.448Z,1002.47
2018-11-25T11:52:19.880Z,1002.46
2018-11-25T11:53:19.862Z,1002.5
2018-11-25T11:54:19.844Z,1002.46
2018-11-25T11:55:19.820Z,1002.48
2018-11-25T11:56:19.798Z,1002.47
2018-11-25T11:57:19.779Z,1002.49
2018-11-25T11:58:19.760Z,1002.51
2018-11-25T11:59:19.744Z,1002.54
2018-11-25T12:00:19.718Z,1002.48
2018-11-25T12:01:19.699Z,1002.54
2018-11-25T12:02:19.678Z,1002.56
2018-11-25T12:03:26.263Z,1002.58
2018-11-25T12:04:19.636Z,1002.55
2018-11-25T12:05:19.618Z,1002.58
2018-11-25T12:06:19.601Z,1002.56
2018-11-25T12:07:19.575Z,1002.53